createdAt,value
2023-09-06T00:03:59.420Z,1.35
2023-09-06T00:14:04.616Z,1.15
2023-09-06T00:19:06.461Z,1.40
2023-09-06T00:24:11.418Z,1.60
2023-09-06T00:29:13.073Z,1.48
2023-09-06T00:34:14.715Z,1.65
2023-09-06T00:39:17.701Z,1.67
2023-09-06T00:44:19.354Z,2.40
2023-09-06T00:49:21.373Z,1.30
2023-09-06T00:54:26.311Z,1.33
2023-09-06T00:59:29.276Z,1.25
2023-09-06T01:04:31.841Z,1.88
2023-09-06T01:09:35.925Z,1.27
2023-09-06T01:14:37.756Z,1.15
2023-09-06T01:19:45.975Z,1.27
2023-09-06T01:24:49.948Z,1.23
2023-09-06T01:29:51.784Z,1.38
2023-09-06T01:34:53.996Z,1.20
2023-09-06T01:39:57.729Z,1.48
2023-09-06T01:44:59.428Z,1.70
2023-09-06T01:50:01.113Z,1.75
2023-09-06T01:55:04.869Z,2.25
2023-09-06T02:00:07.825Z,1.63
2023-09-06T02:05:15.636Z,1.20
2023-09-06T02:10:19.156Z,1.23
2023-09-06T02:15:21.261Z,1.45
2023-09-06T02:20:23.307Z,1.33
2023-09-06T02:25:29.621Z,1.25
2023-09-06T02:30:31.633Z,1.10
2023-09-06T02:35:33.426Z,1.73
2023-09-06T02:40:36.517Z,2.42
2023-09-06T02:45:38.536Z,1.98
2023-09-06T02:50:40.611Z,1.65
2023-09-06T02:55:43.674Z,1.48
2023-09-06T03:00:45.657Z,1.65
2023-09-06T03:05:47.409Z,1.67
2023-09-06T03:10:53.425Z,2.13
2023-09-06T03:15:55.159Z,1.60
2023-09-06T03:20:56.978Z,1.70
2023-09-06T03:26:02.399Z,1.45
2023-09-06T03:31:07.916Z,1.02
2023-09-06T03:41:14.029Z,1.38
2023-09-06T03:46:15.962Z,1.70
2023-09-06T03:51:17.801Z,1.45
2023-09-06T03:56:20.883Z,1.23
2023-09-06T04:01:25.515Z,1.27
2023-09-06T04:06:28.773Z,1.58
2023-09-06T04:11:31.819Z,1.38
2023-09-06T04:16:33.590Z,1.58
2023-09-06T04:21:35.367Z,1.55
2023-09-06T04:26:38.971Z,1.30
2023-09-06T04:31:40.679Z,1.27
2023-09-06T04:36:42.568Z,1.40
2023-09-06T04:46:48.470Z,1.55
2023-09-06T04:51:50.239Z,1.30
2023-09-06T04:56:54.539Z,1.13
2023-09-06T05:01:59.421Z,1.23
2023-09-06T05:07:01.276Z,1.50
2023-09-06T05:12:05.200Z,1.60
2023-09-06T05:17:08.941Z,1.50
2023-09-06T05:22:10.903Z,1.90
2023-09-06T05:27:15.720Z,2.28
2023-09-06T05:32:17.632Z,1.50
2023-09-06T05:37:19.811Z,1.92
2023-09-06T05:42:22.962Z,1.30
2023-09-06T05:47:25.045Z,1.52
2023-09-06T05:57:31.191Z,1.88
2023-09-06T06:02:33.849Z,1.70
2023-09-06T06:07:35.768Z,1.67
2023-09-06T06:12:39.346Z,1.95
2023-09-06T06:17:41.440Z,1.80
2023-09-06T06:22:43.094Z,2.47
2023-09-06T06:27:46.270Z,1.83
2023-09-06T06:32:48.118Z,1.92
2023-09-06T06:37:50.029Z,1.77
2023-09-06T06:42:53.360Z,2.10
2023-09-06T06:47:55.467Z,1.63
2023-09-06T06:52:57.244Z,1.90
2023-09-06T06:58:00.350Z,1.63
2023-09-06T07:03:02.318Z,1.77
2023-09-06T07:08:04.718Z,1.63
2023-09-06T07:13:07.961Z,1.60
2023-09-06T07:18:09.863Z,1.75
2023-09-06T07:23:11.788Z,1.58
2023-09-06T07:28:15.328Z,1.52
2023-09-06T07:33:17.767Z,1.90
2023-09-06T07:38:19.458Z,1.48
2023-09-06T07:43:22.505Z,1.67
2023-09-06T07:48:25.787Z,1.98
2023-09-06T07:53:27.963Z,2.05
2023-09-06T07:58:31.581Z,1.65
2023-09-06T08:03:34.384Z,1.83
2023-09-06T08:08:36.710Z,2.05
2023-09-06T08:13:39.799Z,1.85
2023-09-06T08:18:41.619Z,1.90
2023-09-06T08:23:43.578Z,2.17
2023-09-06T08:33:48.234Z,2.20
2023-09-06T08:38:50.060Z,2.17
2023-09-06T08:43:53.763Z,1.65
2023-09-06T08:48:56.774Z,1.73
2023-09-06T08:53:59.288Z,2.25
2023-09-06T08:59:02.555Z,2.28
2023-09-06T09:04:04.573Z,1.83
2023-09-06T09:09:14.632Z,2.40
2023-09-06T09:14:23.860Z,2.42
2023-09-06T09:19:26.793Z,2.38
2023-09-06T09:24:30.466Z,2.42
2023-09-06T09:29:33.780Z,2.35
2023-09-06T09:34:35.527Z,2.33
2023-09-06T09:39:37.748Z,1.77
2023-09-06T09:44:41.197Z,2.38
2023-09-06T09:49:43.521Z,2.03
2023-09-06T09:54:48.877Z,2.63
2023-09-06T09:59:54.507Z,2.33
2023-09-06T10:04:58.237Z,2.35
2023-09-06T10:10:02.106Z,2.88
2023-09-06T10:15:06.284Z,2.25
2023-09-06T10:20:09.792Z,2.55
2023-09-06T10:25:12.057Z,2.08
2023-09-06T10:30:15.925Z,2.47
2023-09-06T10:35:25.689Z,2.80
2023-09-06T10:41:08.763Z,2.10
2023-09-06T10:46:29.104Z,2.63
2023-09-06T10:51:31.053Z,2.45
2023-09-06T10:56:32.780Z,2.05
2023-09-06T11:01:46.706Z,2.03
2023-09-06T11:06:56.452Z,2.65
2023-09-06T11:11:59.368Z,2.38
2023-09-06T11:17:02.447Z,1.98
2023-09-06T11:22:08.309Z,2.63
2023-09-06T11:27:20.708Z,2.25
2023-09-06T11:32:23.831Z,2.83
2023-09-06T11:37:25.829Z,2.22
2023-09-06T11:42:28.931Z,2.50
2023-09-06T11:47:32.073Z,2.63
2023-09-06T11:52:44.172Z,2.40
2023-09-06T11:57:53.544Z,2.20
2023-09-06T12:03:10.642Z,2.17
2023-09-06T12:08:13.287Z,1.83
2023-09-06T12:13:14.975Z,2.13
2023-09-06T12:18:18.421Z,2.10
2023-09-06T12:23:20.825Z,2.38
2023-09-06T12:28:22.605Z,2.42
2023-09-06T12:33:26.556Z,2.92
2023-09-06T12:38:29.377Z,2.80
2023-09-06T12:43:32.156Z,2.28
2023-09-06T12:48:35.759Z,2.58
2023-09-06T12:53:37.802Z,2.30
2023-09-06T12:58:39.741Z,3.00
2023-09-06T13:03:42.980Z,2.78
2023-09-06T13:08:44.948Z,2.25
2023-09-06T13:13:46.707Z,2.53
2023-09-06T13:18:49.852Z,2.78
2023-09-06T13:23:51.560Z,2.17
2023-09-06T13:28:53.240Z,2.13
2023-09-06T13:33:56.242Z,2.08
2023-09-06T13:38:57.891Z,2.67
2023-09-06T13:43:59.700Z,2.53
2023-09-06T13:49:03.298Z,2.13
2023-09-06T13:54:05.875Z,2.50
2023-09-06T13:59:07.529Z,2.30
2023-09-06T14:04:10.869Z,2.20
2023-09-06T14:09:12.622Z,2.35
2023-09-06T14:14:14.443Z,2.45
2023-09-06T14:19:17.494Z,2.58
2023-09-06T14:24:19.140Z,2.65
2023-09-06T14:29:20.811Z,2.45
2023-09-06T14:34:23.960Z,2.33
2023-09-06T14:39:25.767Z,2.10
2023-09-06T14:44:27.548Z,2.58
2023-09-06T14:49:30.919Z,2.33
2023-09-06T14:54:32.897Z,2.35
2023-09-06T14:59:34.638Z,2.80
2023-09-06T15:04:37.817Z,2.08
2023-09-06T15:09:39.463Z,2.42
2023-09-06T15:14:41.261Z,2.22
2023-09-06T15:19:44.287Z,2.47
2023-09-06T15:24:45.930Z,2.25
2023-09-06T15:29:47.604Z,1.92
2023-09-06T15:34:50.841Z,2.78
2023-09-06T15:39:52.452Z,2.60
2023-09-06T15:44:54.505Z,2.67
2023-09-06T15:49:57.476Z,2.33
2023-09-06T15:54:59.357Z,2.53
2023-09-06T16:00:09.327Z,2.42
2023-09-06T16:05:19.798Z,2.13
2023-09-06T16:10:21.798Z,2.33
2023-09-06T16:15:23.500Z,2.20
2023-09-06T16:20:26.605Z,2.58
2023-09-06T16:25:28.397Z,2.35
2023-09-06T16:30:30.318Z,2.13
2023-09-06T16:35:36.271Z,2.35
2023-09-06T16:40:40.728Z,2.13
2023-09-06T16:45:42.610Z,2.75
2023-09-06T16:50:46.048Z,2.35
2023-09-06T16:55:48.034Z,1.92
2023-09-06T17:00:49.801Z,2.17
2023-09-06T17:05:52.927Z,2.55
2023-09-06T17:10:54.912Z,2.63
2023-09-06T17:15:56.936Z,2.45
2023-09-06T17:21:00.100Z,2.13
2023-09-06T17:26:01.817Z,2.50
2023-09-06T17:31:03.462Z,2.45
2023-09-06T17:36:07.413Z,2.42
2023-09-06T17:41:09.097Z,3.35
2023-09-06T17:46:10.766Z,3.22
2023-09-06T17:51:14.158Z,3.53
2023-09-06T17:56:16.392Z,2.70
2023-09-06T18:01:19.241Z,2.78
2023-09-06T18:06:22.556Z,3.38
2023-09-06T18:11:24.924Z,4.05
2023-09-06T18:16:26.716Z,3.35
2023-09-06T18:21:29.859Z,3.67
2023-09-06T18:26:31.714Z,3.72
2023-09-06T18:31:33.875Z,3.15
2023-09-06T18:36:36.933Z,3.25
2023-09-06T18:41:38.604Z,3.70
2023-09-06T18:46:40.523Z,3.28
2023-09-06T18:51:43.664Z,3.17
2023-09-06T18:56:45.581Z,3.55
2023-09-06T19:01:47.254Z,3.05
2023-09-06T19:06:50.249Z,3.13
2023-09-06T19:11:52.156Z,4.53
2023-09-06T19:16:53.897Z,3.88
2023-09-06T19:21:57.297Z,2.88
2023-09-06T19:26:59.053Z,3.00
2023-09-06T19:32:03.227Z,3.05
2023-09-06T19:37:07.776Z,2.88
2023-09-06T19:42:09.561Z,3.88
2023-09-06T19:47:11.419Z,3.25
2023-09-06T19:52:14.503Z,3.67
2023-09-06T19:57:16.567Z,2.92
2023-09-06T20:02:18.611Z,3.22
2023-09-06T20:07:21.685Z,2.80
2023-09-06T20:12:23.465Z,3.25
2023-09-06T20:22:28.150Z,3.55
2023-09-06T20:27:30.811Z,3.85
2023-09-06T20:32:32.555Z,4.03
2023-09-06T20:42:37.219Z,3.20
2023-09-06T20:47:39.212Z,3.33
2023-09-06T20:52:42.290Z,3.47
2023-09-06T20:57:44.204Z,3.28
2023-09-06T21:07:48.866Z,2.83
2023-09-06T21:12:50.903Z,3.17
2023-09-06T21:22:55.669Z,3.70
2023-09-06T21:27:57.326Z,2.83
2023-09-06T21:32:59.128Z,2.70
2023-09-06T21:38:02.280Z,3.70
2023-09-06T21:43:15.987Z,2.67
2023-09-06T21:48:19.915Z,3.22
2023-09-06T21:53:23.010Z,2.92
2023-09-06T21:58:24.778Z,3.40
2023-09-06T22:03:45.348Z,2.90
2023-09-06T22:09:07.053Z,3.50
2023-09-06T22:14:27.363Z,3.33
2023-09-06T22:19:28.989Z,3.67
2023-09-06T22:24:32.012Z,2.88
2023-09-06T22:29:33.678Z,2.53
2023-09-06T22:34:36.552Z,2.70
2023-09-06T22:44:41.434Z,2.97
2023-09-06T22:49:43.221Z,2.88
2023-09-06T22:54:46.240Z,3.80
2023-09-06T22:59:47.992Z,2.55
2023-09-06T23:04:49.663Z,2.88
2023-09-06T23:09:53.022Z,3.83
2023-09-06T23:14:54.899Z,3.45
2023-09-06T23:19:56.556Z,2.75
2023-09-06T23:24:59.574Z,3.13
2023-09-06T23:30:01.248Z,3.03
2023-09-06T23:35:03.539Z,2.80
2023-09-06T23:40:08.233Z,2.38
2023-09-06T23:45:10.605Z,2.92
2023-09-06T23:50:12.578Z,2.58
2023-09-06T23:55:15.629Z,2.55
